createdAt,value
2019-04-03T00:00:04.693Z,96940.52
2019-04-03T00:02:34.365Z,96937.11
2019-04-03T00:05:02.852Z,96939.64
2019-04-03T00:07:31.704Z,96944.37
2019-04-03T00:10:00.149Z,96938.20
2019-04-03T00:12:30.285Z,96931.77
2019-04-03T00:14:59.219Z,96938.16
2019-04-03T00:17:29.959Z,96941.98
2019-04-03T00:19:59.194Z,96936.52
2019-04-03T00:22:30.105Z,96927.09
2019-04-03T00:24:58.801Z,96931.84
2019-04-03T00:27:25.405Z,96930.63
2019-04-03T00:29:53.300Z,96922.65
2019-04-03T00:32:23.805Z,96915.45
2019-04-03T00:34:53.496Z,96918.00
2019-04-03T00:37:24.344Z,96926.69
2019-04-03T00:39:54.498Z,96917.26
2019-04-03T00:42:24.164Z,96915.56
2019-04-03T00:44:50.153Z,96911.63
2019-04-03T00:47:16.959Z,96914.67
2019-04-03T00:49:45.722Z,96905.75
2019-04-03T00:52:15.002Z,96905.34
2019-04-03T00:54:46.203Z,96894.94
2019-04-03T00:57:15.346Z,96900.59
2019-04-03T00:59:42.124Z,96898.77
2019-04-03T01:02:16.176Z,96892.31
2019-04-03T01:04:43.436Z,96888.06
2019-04-03T01:07:10.019Z,96884.70
2019-04-03T01:09:41.954Z,96880.65
2019-04-03T01:12:09.584Z,96877.61
2019-04-03T01:14:37.548Z,96887.42
2019-04-03T01:17:06.264Z,96879.66
2019-04-03T01:19:36.425Z,96871.97
2019-04-03T01:24:50.259Z,96871.55
2019-04-03T01:27:19.790Z,96873.39
2019-04-03T01:29:46.722Z,96870.73
2019-04-03T01:32:15.520Z,96864.45
2019-04-03T01:34:47.362Z,96872.14
2019-04-03T01:37:12.510Z,96868.73
2019-04-03T01:39:44.710Z,96871.55
2019-04-03T01:42:12.565Z,96868.02
2019-04-03T01:44:40.474Z,96867.20
2019-04-03T01:47:09.313Z,96861.75
2019-04-03T01:49:39.055Z,96864.17
2019-04-03T01:52:05.944Z,96857.59
2019-04-03T01:54:34.857Z,96853.94
2019-04-03T01:57:06.142Z,96845.35
2019-04-03T01:59:37.092Z,96841.11
2019-04-03T02:02:08.409Z,96850.22
2019-04-03T02:04:34.214Z,96847.17
2019-04-03T02:07:01.583Z,96844.05
2019-04-03T02:09:31.970Z,96837.34
2019-04-03T02:11:59.811Z,96827.73
2019-04-03T02:14:26.637Z,96827.75
2019-04-03T02:16:55.455Z,96829.25
2019-04-03T02:19:26.626Z,96826.64
2019-04-03T02:21:57.990Z,96824.72
2019-04-03T02:24:24.702Z,96823.50
2019-04-03T02:26:53.346Z,96822.19
2019-04-03T02:29:20.495Z,96821.08
2019-04-03T02:31:53.064Z,96823.19
2019-04-03T02:34:18.948Z,96822.80
2019-04-03T02:36:46.963Z,96822.18
2019-04-03T02:39:18.919Z,96817.53
2019-04-03T02:41:45.837Z,96815.70
2019-04-03T02:44:12.807Z,96812.67
2019-04-03T02:46:44.137Z,96807.22
2019-04-03T02:49:11.113Z,96811.47
2019-04-03T02:51:38.202Z,96808.92
2019-04-03T02:54:04.929Z,96802.05
2019-04-03T02:56:31.644Z,96799.21
2019-04-03T02:58:58.630Z,96809.37
2019-04-03T03:01:25.795Z,96806.38
2019-04-03T03:03:52.662Z,96802.78
2019-04-03T03:06:19.418Z,96801.84
2019-04-03T03:08:46.962Z,96799.42
2019-04-03T03:11:13.553Z,96796.09
2019-04-03T03:13:40.172Z,96795.58
2019-04-03T03:16:06.920Z,96793.86
2019-04-03T03:18:33.790Z,96785.37
2019-04-03T03:21:00.459Z,96786.08
2019-04-03T03:23:27.088Z,96784.17
2019-04-03T03:25:53.983Z,96786.78
2019-04-03T03:28:20.547Z,96786.78
2019-04-03T03:30:57.718Z,96784.97
2019-04-03T03:33:33.464Z,96788.08
2019-04-03T03:35:47.588Z,96784.73
2019-04-03T03:38:13.589Z,96788.75
2019-04-03T03:40:40.371Z,96786.30
2019-04-03T03:43:07.144Z,96784.91
2019-04-03T03:45:34.778Z,96791.55
2019-04-03T03:48:01.824Z,96787.20
2019-04-03T03:50:28.487Z,96786.59
2019-04-03T03:52:56.186Z,96785.45
2019-04-03T03:55:25.148Z,96792.41
2019-04-03T03:57:51.738Z,96787.38
2019-04-03T04:00:22.625Z,96786.64
2019-04-03T04:02:46.801Z,96786.25
2019-04-03T04:05:13.561Z,96786.66
2019-04-03T04:07:40.164Z,96792.23
2019-04-03T04:10:07.389Z,96785.27
2019-04-03T04:12:34.034Z,96779.78
2019-04-03T04:15:00.763Z,96778.36
2019-04-03T04:17:27.337Z,96776.23
2019-04-03T04:19:54.276Z,96779.22
2019-04-03T04:22:21.201Z,96777.05
2019-04-03T04:24:49.080Z,96772.66
2019-04-03T04:27:15.934Z,96770.14
2019-04-03T04:29:43.076Z,96771.45
2019-04-03T04:32:10.080Z,96774.93
2019-04-03T04:34:36.661Z,96775.92
2019-04-03T04:37:03.291Z,96776.16
2019-04-03T04:39:29.863Z,96767.08
2019-04-03T04:41:56.908Z,96766.63
2019-04-03T04:44:23.756Z,96772.50
2019-04-03T04:46:50.690Z,96771.89
2019-04-03T04:49:19.258Z,96778.50
2019-04-03T04:51:47.772Z,96777.89
2019-04-03T04:54:14.359Z,96780.58
2019-04-03T04:56:40.934Z,96775.40
2019-04-03T04:59:07.557Z,96771.57
2019-04-03T05:01:34.175Z,96776.81
2019-04-03T05:04:00.945Z,96776.91
2019-04-03T05:06:29.594Z,96772.89
2019-04-03T05:08:56.181Z,96777.00
2019-04-03T05:11:23.877Z,96780.64
2019-04-03T05:13:50.661Z,96777.72
2019-04-03T05:16:19.815Z,96773.78
2019-04-03T05:18:45.607Z,96778.13
2019-04-03T05:21:12.565Z,96781.05
2019-04-03T05:23:39.246Z,96778.78
2019-04-03T05:26:05.887Z,96780.20
2019-04-03T05:28:34.018Z,96779.70
2019-04-03T05:31:01.417Z,96770.00
2019-04-03T05:33:28.071Z,96772.92
2019-04-03T05:35:54.957Z,96766.54
2019-04-03T05:38:22.514Z,96765.81
2019-04-03T05:40:49.961Z,96760.73
2019-04-03T05:43:16.621Z,96759.36
2019-04-03T05:45:43.565Z,96757.66
2019-04-03T05:48:12.564Z,96757.78
2019-04-03T05:50:38.864Z,96763.68
2019-04-03T05:53:06.475Z,96755.58
2019-04-03T05:55:33.188Z,96761.17
2019-04-03T05:58:00.139Z,96755.00
2019-04-03T06:00:26.739Z,96753.08
2019-04-03T06:02:57.072Z,96745.19
2019-04-03T06:05:22.517Z,96741.14
2019-04-03T06:07:50.580Z,96743.55
2019-04-03T06:10:17.200Z,96739.47
2019-04-03T06:12:45.392Z,96737.98
2019-04-03T06:15:12.497Z,96735.81
2019-04-03T06:17:39.191Z,96735.67
2019-04-03T06:20:06.068Z,96730.36
2019-04-03T06:22:32.764Z,96735.86
2019-04-03T06:25:00.012Z,96738.45
2019-04-03T06:27:27.968Z,96738.08
2019-04-03T06:29:55.556Z,96746.63
2019-04-03T06:32:24.381Z,96741.05
2019-04-03T06:34:51.106Z,96744.14
2019-04-03T06:37:17.703Z,96746.17
2019-04-03T06:39:44.558Z,96739.05
2019-04-03T06:42:13.381Z,96736.80
2019-04-03T06:44:39.828Z,96726.14
2019-04-03T06:47:06.443Z,96722.34
2019-04-03T06:49:33.135Z,96725.56
2019-04-03T06:51:59.934Z,96727.62
2019-04-03T06:54:26.719Z,96734.13
2019-04-03T06:56:54.564Z,96736.34
2019-04-03T06:59:21.589Z,96734.88
2019-04-03T07:01:48.289Z,96739.83
2019-04-03T07:04:14.920Z,96733.20
2019-04-03T07:06:42.812Z,96732.73
2019-04-03T07:09:21.859Z,96731.55
2019-04-03T07:11:38.597Z,96729.90
2019-04-03T07:14:05.464Z,96724.16
2019-04-03T07:16:32.526Z,96724.20
2019-04-03T07:18:59.837Z,96728.50
2019-04-03T07:21:27.654Z,96730.25
2019-04-03T07:23:54.554Z,96726.97
2019-04-03T07:26:21.788Z,96732.35
2019-04-03T07:28:48.524Z,96729.41
2019-04-03T07:31:15.416Z,96730.71
2019-04-03T07:33:42.256Z,96737.19
2019-04-03T07:36:11.336Z,96737.95
2019-04-03T07:38:37.612Z,96735.52
2019-04-03T07:41:04.366Z,96740.56
2019-04-03T07:43:30.960Z,96741.89
2019-04-03T07:45:57.576Z,96739.00
2019-04-03T07:48:25.056Z,96741.22
2019-04-03T07:50:51.833Z,96729.72
2019-04-03T07:53:19.903Z,96732.50
2019-04-03T07:55:47.139Z,96738.97
2019-04-03T07:58:15.027Z,96734.09
2019-04-03T08:00:42.151Z,96742.62
2019-04-03T08:03:10.731Z,96740.45
2019-04-03T08:05:37.399Z,96738.14
2019-04-03T08:08:04.277Z,96739.02
2019-04-03T08:10:31.165Z,96735.27
2019-04-03T08:15:48.167Z,96722.27
2019-04-03T08:18:15.159Z,96728.44
2019-04-03T08:20:42.247Z,96728.11
2019-04-03T08:23:08.885Z,96730.03
2019-04-03T08:25:35.551Z,96732.75
2019-04-03T08:28:02.281Z,96729.34
2019-04-03T08:30:29.418Z,96725.39
2019-04-03T08:32:56.292Z,96729.13
2019-04-03T08:35:24.234Z,96725.70
2019-04-03T08:37:51.334Z,96725.14
2019-04-03T08:40:20.315Z,96724.88
2019-04-03T08:42:46.671Z,96729.56
2019-04-03T08:45:13.677Z,96723.55
2019-04-03T08:47:40.699Z,96718.52
2019-04-03T08:50:07.596Z,96712.63
2019-04-03T08:52:34.800Z,96714.22
2019-04-03T08:55:02.704Z,96716.08
2019-04-03T08:57:29.704Z,96714.77
2019-04-03T08:59:57.987Z,96708.05
2019-04-03T09:02:24.843Z,96707.26
2019-04-03T09:04:51.819Z,96707.46
2019-04-03T09:07:19.925Z,96704.78
2019-04-03T09:09:46.522Z,96707.63
2019-04-03T09:12:13.116Z,96703.53
2019-04-03T09:14:39.886Z,96708.37
2019-04-03T09:17:07.654Z,96697.33
2019-04-03T09:19:34.536Z,96700.33
2019-04-03T09:22:04.812Z,96703.33
2019-04-03T09:24:31.679Z,96690.61
2019-04-03T09:26:58.610Z,96693.20
2019-04-03T09:29:27.858Z,96690.09
2019-04-03T09:31:56.184Z,96673.84
2019-04-03T09:34:22.939Z,96665.63
2019-04-03T09:36:54.613Z,96655.06
2019-04-03T09:39:22.883Z,96660.16
2019-04-03T09:41:50.892Z,96654.19
2019-04-03T09:44:20.127Z,96641.02
2019-04-03T09:46:48.805Z,96650.55
2019-04-03T09:49:15.762Z,96649.91
2019-04-03T09:51:42.843Z,96658.00
2019-04-03T09:54:13.299Z,96644.66
2019-04-03T09:56:54.830Z,96636.58
2019-04-03T09:59:10.819Z,96638.47
2019-04-03T10:01:38.914Z,96635.11
2019-04-03T10:04:08.445Z,96634.88
2019-04-03T10:06:37.426Z,96633.09
2019-04-03T10:09:05.968Z,96632.90
2019-04-03T10:11:32.533Z,96629.41
2019-04-03T10:14:01.448Z,96623.16
2019-04-03T10:16:29.581Z,96621.71
2019-04-03T10:18:56.961Z,96616.12
2019-04-03T10:21:23.899Z,96617.05
2019-04-03T10:23:52.070Z,96617.94
2019-04-03T10:26:22.259Z,96612.84
2019-04-03T10:29:03.078Z,96612.42
2019-04-03T10:31:35.523Z,96605.45
2019-04-03T10:34:13.569Z,96601.47
2019-04-03T10:36:43.513Z,96603.27
2019-04-03T10:39:10.685Z,96599.33
2019-04-03T10:41:37.486Z,96597.59
2019-04-03T10:44:10.360Z,96592.38
2019-04-03T10:46:38.835Z,96594.32
2019-04-03T10:49:09.091Z,96589.82
2019-04-03T10:51:40.926Z,96589.77
2019-04-03T10:54:10.968Z,96577.28
2019-04-03T10:56:39.018Z,96576.73
2019-04-03T10:59:12.139Z,96568.91
2019-04-03T11:01:34.646Z,96573.05
2019-04-03T11:04:04.704Z,96563.45
2019-04-03T11:06:31.562Z,96567.27
2019-04-03T11:09:01.048Z,96556.23
2019-04-03T11:11:30.231Z,96558.81
2019-04-03T11:13:57.864Z,96550.16
2019-04-03T11:16:24.451Z,96548.91
2019-04-03T11:19:00.053Z,96551.17
2019-04-03T11:21:25.961Z,96555.23
2019-04-03T11:23:53.739Z,96551.80
2019-04-03T11:26:24.026Z,96557.30
2019-04-03T11:28:49.319Z,96549.66
2019-04-03T11:31:25.426Z,96553.95
2019-04-03T11:33:46.285Z,96555.03
2019-04-03T11:36:13.673Z,96562.63
2019-04-03T11:38:40.577Z,96558.70
2019-04-03T11:41:14.554Z,96556.43
2019-04-03T11:43:36.253Z,96548.11
2019-04-03T11:46:03.251Z,96557.70
2019-04-03T11:48:30.464Z,96546.38
2019-04-03T11:50:58.131Z,96548.66
2019-04-03T11:53:25.210Z,96545.99
2019-04-03T11:55:52.132Z,96536.66
2019-04-03T11:58:20.736Z,96533.10
2019-04-03T12:00:48.138Z,96531.71
2019-04-03T12:03:15.114Z,96532.86
2019-04-03T12:05:41.727Z,96531.70
2019-04-03T12:08:08.687Z,96522.83
2019-04-03T12:10:35.699Z,96514.55
2019-04-03T12:13:04.288Z,96508.66
2019-04-03T12:15:33.812Z,96509.28
2019-04-03T12:18:01.169Z,96502.23
2019-04-03T12:20:28.459Z,96502.28
2019-04-03T12:22:55.815Z,96488.09
2019-04-03T12:25:23.128Z,96490.53
2019-04-03T12:27:50.004Z,96485.74
2019-04-03T12:30:17.348Z,96493.44
2019-04-03T12:32:48.737Z,96486.39
2019-04-03T12:35:13.172Z,96480.55
2019-04-03T12:37:40.062Z,96468.67
2019-04-03T12:40:07.237Z,96464.69
2019-04-03T12:42:34.179Z,96459.07
2019-04-03T12:45:01.349Z,96461.63
2019-04-03T12:47:29.231Z,96462.81
2019-04-03T12:49:56.644Z,96455.19
2019-04-03T12:52:23.572Z,96462.88
2019-04-03T12:54:52.941Z,96456.10
2019-04-03T12:57:19.089Z,96463.02
2019-04-03T12:59:47.639Z,96462.02
2019-04-03T13:02:15.080Z,96471.05
2019-04-03T13:04:41.937Z,96454.64
2019-04-03T13:07:08.857Z,96449.00
2019-04-03T13:09:38.403Z,96448.60
2019-04-03T13:12:05.210Z,96449.83
2019-04-03T13:14:33.439Z,96445.86
2019-04-03T13:17:00.595Z,96445.17
2019-04-03T13:19:28.864Z,96446.33
2019-04-03T13:21:56.064Z,96440.87
2019-04-03T13:24:23.498Z,96423.61
2019-04-03T13:26:50.435Z,96418.20
2019-04-03T13:29:17.501Z,96418.92
2019-04-03T13:31:47.064Z,96416.60
2019-04-03T13:34:13.417Z,96408.16
2019-04-03T13:36:40.206Z,96414.56
2019-04-03T13:39:07.514Z,96414.98
2019-04-03T13:41:34.854Z,96407.42
2019-04-03T13:44:02.282Z,96401.14
2019-04-03T13:46:30.181Z,96411.70
2019-04-03T13:48:57.195Z,96415.05
2019-04-03T13:51:24.145Z,96410.01
2019-04-03T13:53:53.815Z,96415.38
2019-04-03T13:56:23.165Z,96418.91
2019-04-03T13:58:52.494Z,96421.61
2019-04-03T14:01:19.173Z,96405.52
2019-04-03T14:03:46.367Z,96419.19
2019-04-03T14:06:13.386Z,96418.55
2019-04-03T14:08:40.337Z,96414.64
2019-04-03T14:11:07.230Z,96419.29
2019-04-03T14:13:33.928Z,96408.11
2019-04-03T14:16:01.644Z,96409.20
2019-04-03T14:18:29.783Z,96402.17
2019-04-03T14:20:57.150Z,96413.06
2019-04-03T14:23:24.072Z,96409.36
2019-04-03T14:26:03.146Z,96414.61
2019-04-03T14:28:19.659Z,96424.62
2019-04-03T14:30:46.389Z,96425.06
2019-04-03T14:33:13.580Z,96421.28
2019-04-03T14:35:49.400Z,96427.46
2019-04-03T14:38:11.590Z,96421.73
2019-04-03T14:40:37.461Z,96430.84
2019-04-03T14:43:04.337Z,96431.25
2019-04-03T14:45:31.292Z,96443.08
2019-04-03T14:47:58.179Z,96488.08
2019-04-03T14:50:25.674Z,96492.31
2019-04-03T14:52:52.716Z,96502.54
2019-04-03T14:55:22.635Z,96504.66
2019-04-03T14:57:48.491Z,96507.79
2019-04-03T15:00:26.111Z,96505.92
2019-04-03T15:02:43.669Z,96516.88
2019-04-03T15:05:10.947Z,96526.72
2019-04-03T15:07:37.513Z,96514.45
2019-04-03T15:10:04.097Z,96503.58
2019-04-03T15:12:30.680Z,96496.91
2019-04-03T15:14:57.581Z,96495.03
2019-04-03T15:17:24.709Z,96498.00
2019-04-03T15:19:51.891Z,96502.16
2019-04-03T15:22:18.560Z,96495.95
2019-04-03T15:24:45.713Z,96497.20
2019-04-03T15:27:13.233Z,96495.79
2019-04-03T15:29:41.301Z,96491.62
2019-04-03T15:32:08.468Z,96484.66
2019-04-03T15:34:35.681Z,96485.71
2019-04-03T15:37:02.362Z,96488.16
2019-04-03T15:39:29.932Z,96483.92
2019-04-03T15:42:06.705Z,96484.27
2019-04-03T15:44:35.283Z,96480.61
2019-04-03T15:47:02.310Z,96485.89
2019-04-03T15:49:29.797Z,96487.52
2019-04-03T15:51:56.959Z,96481.23
2019-04-03T15:54:26.199Z,96480.83
2019-04-03T15:56:52.344Z,96478.04
2019-04-03T15:59:19.562Z,96472.21
2019-04-03T16:01:46.197Z,96474.00
2019-04-03T16:04:13.056Z,96484.66
2019-04-03T16:06:41.141Z,96472.08
2019-04-03T16:09:08.101Z,96472.84
2019-04-03T16:11:35.814Z,96481.88
2019-04-03T16:14:02.722Z,96475.06
2019-04-03T16:16:29.444Z,96479.52
2019-04-03T16:18:56.110Z,96476.88
2019-04-03T16:21:24.301Z,96480.00
2019-04-03T16:23:51.537Z,96478.91
2019-04-03T16:26:18.265Z,96482.05
2019-04-03T16:28:45.211Z,96480.23
2019-04-03T16:31:11.777Z,96479.45
2019-04-03T16:33:38.844Z,96481.34
2019-04-03T16:36:07.012Z,96482.34
2019-04-03T16:38:35.870Z,96478.91
2019-04-03T16:41:02.352Z,96474.83
2019-04-03T16:43:29.540Z,96480.42
2019-04-03T16:45:56.322Z,96474.58
2019-04-03T16:48:23.037Z,96470.84
2019-04-03T16:50:50.062Z,96468.39
2019-04-03T16:53:19.848Z,96466.55
2019-04-03T16:55:47.570Z,96474.82
2019-04-03T16:58:14.196Z,96467.92
2019-04-03T17:00:42.719Z,96469.00
2019-04-03T17:03:09.922Z,96465.48
2019-04-03T17:05:37.667Z,96471.63
2019-04-03T17:08:04.460Z,96465.09
2019-04-03T17:10:31.042Z,96463.80
2019-04-03T17:12:57.925Z,96454.11
2019-04-03T17:15:24.829Z,96457.54
2019-04-03T17:17:51.600Z,96459.13
2019-04-03T17:20:18.545Z,96456.98
2019-04-03T17:22:46.790Z,96455.50
2019-04-03T17:25:13.916Z,96453.66
2019-04-03T17:27:40.635Z,96450.96
2019-04-03T17:30:07.938Z,96456.53
2019-04-03T17:32:37.925Z,96461.33
2019-04-03T17:35:20.859Z,96464.25
2019-04-03T17:37:53.719Z,96462.71
2019-04-03T17:40:20.485Z,96460.83
2019-04-03T17:42:48.894Z,96462.47
2019-04-03T17:48:01.444Z,96461.15
2019-04-03T17:50:33.077Z,96462.52
2019-04-03T17:52:58.828Z,96460.64
2019-04-03T17:55:33.221Z,96464.09
2019-04-03T17:57:56.819Z,96465.39
2019-04-03T18:00:25.787Z,96461.41
2019-04-03T18:03:05.563Z,96468.86
2019-04-03T18:05:33.336Z,96465.94
2019-04-03T18:08:04.791Z,96463.23
2019-04-03T18:10:28.778Z,96470.17
2019-04-03T18:12:55.368Z,96474.44
2019-04-03T18:15:22.017Z,96468.84
2019-04-03T18:17:48.632Z,96477.09
2019-04-03T18:20:15.213Z,96473.63
2019-04-03T18:22:41.844Z,96475.73
2019-04-03T18:25:09.020Z,96476.03
2019-04-03T18:27:35.608Z,96481.59
2019-04-03T18:30:02.663Z,96487.25
2019-04-03T18:32:29.953Z,96488.80
2019-04-03T18:34:56.876Z,96488.52
2019-04-03T18:37:23.502Z,96488.84
2019-04-03T18:39:51.578Z,96487.73
2019-04-03T18:42:19.161Z,96485.81
2019-04-03T18:44:45.960Z,96487.08
2019-04-03T18:47:12.866Z,96488.10
2019-04-03T18:49:40.051Z,96489.66
2019-04-03T18:52:08.032Z,96485.33
2019-04-03T18:54:35.142Z,96483.48
2019-04-03T18:57:01.732Z,96491.12
2019-04-03T18:59:28.379Z,96491.70
2019-04-03T19:01:54.989Z,96490.65
2019-04-03T19:04:21.583Z,96497.03
2019-04-03T19:06:48.231Z,96498.53
2019-04-03T19:09:15.123Z,96495.27
2019-04-03T19:11:41.721Z,96494.45
2019-04-03T19:14:08.597Z,96487.52
2019-04-03T19:16:43.924Z,96486.70
2019-04-03T19:19:08.219Z,96486.42
2019-04-03T19:21:32.009Z,96485.05
2019-04-03T19:24:11.071Z,96485.82
2019-04-03T19:26:40.990Z,96499.52
2019-04-03T19:29:07.816Z,96495.30
2019-04-03T19:31:34.671Z,96498.51
2019-04-03T19:34:03.861Z,96499.12
2019-04-03T19:36:33.041Z,96514.30
2019-04-03T19:38:59.965Z,96510.84
2019-04-03T19:41:28.690Z,96509.90
2019-04-03T19:43:55.349Z,96516.87
2019-04-03T19:46:22.767Z,96515.95
2019-04-03T19:48:49.993Z,96510.84
2019-04-03T19:51:18.279Z,96508.42
2019-04-03T19:53:58.698Z,96504.55
2019-04-03T19:56:19.977Z,96501.61
2019-04-03T19:58:49.187Z,96502.77
2019-04-03T20:01:23.791Z,96501.86
2019-04-03T20:03:48.031Z,96498.86
2019-04-03T20:06:14.911Z,96495.69
2019-04-03T20:08:44.569Z,96495.34
2019-04-03T20:11:11.530Z,96497.55
2019-04-03T20:13:39.825Z,96500.34
2019-04-03T20:16:10.511Z,96501.18
2019-04-03T20:18:37.320Z,96501.14
2019-04-03T20:21:05.186Z,96502.02
2019-04-03T20:23:34.596Z,96508.06
2019-04-03T20:26:04.629Z,96505.90
2019-04-03T20:28:30.223Z,96507.35
2019-04-03T20:30:57.349Z,96505.77
2019-04-03T20:33:25.980Z,96515.64
2019-04-03T20:35:55.680Z,96517.44
2019-04-03T20:38:33.211Z,96521.00
2019-04-03T20:41:02.871Z,96519.61
2019-04-03T20:43:28.779Z,96515.17
2019-04-03T20:45:57.753Z,96511.14
2019-04-03T20:48:28.225Z,96514.42
2019-04-03T20:50:55.604Z,96507.27
2019-04-03T20:53:26.107Z,96507.90
2019-04-03T20:55:52.700Z,96511.55
2019-04-03T20:58:21.432Z,96510.83
2019-04-03T21:00:49.953Z,96514.25
2019-04-03T21:03:18.949Z,96520.61
2019-04-03T21:05:46.875Z,96519.94
2019-04-03T21:08:16.297Z,96527.98
2019-04-03T21:10:46.820Z,96531.52
2019-04-03T21:13:15.409Z,96523.82
2019-04-03T21:15:46.176Z,96528.01
2019-04-03T21:18:13.918Z,96526.69
2019-04-03T21:20:41.439Z,96524.09
2019-04-03T21:23:08.254Z,96524.20
2019-04-03T21:25:36.063Z,96523.20
2019-04-03T21:28:03.259Z,96528.80
2019-04-03T21:30:31.599Z,96529.33
2019-04-03T21:32:59.879Z,96522.36
2019-04-03T21:35:27.113Z,96519.84
2019-04-03T21:37:56.230Z,96523.05
2019-04-03T21:40:25.100Z,96524.23
2019-04-03T21:42:54.061Z,96519.16
2019-04-03T21:45:23.516Z,96520.48
2019-04-03T21:47:50.111Z,96515.63
2019-04-03T21:50:18.920Z,96519.48
2019-04-03T21:52:45.086Z,96521.45
2019-04-03T21:55:13.403Z,96521.06
2019-04-03T21:57:39.945Z,96524.23
2019-04-03T22:00:22.709Z,96522.45
2019-04-03T22:02:35.916Z,96521.13
2019-04-03T22:05:07.102Z,96511.58
2019-04-03T22:07:37.077Z,96515.97
2019-04-03T22:10:03.665Z,96510.72
2019-04-03T22:12:30.332Z,96511.17
2019-04-03T22:14:59.425Z,96508.90
2019-04-03T22:17:27.736Z,96506.13
2019-04-03T22:19:54.286Z,96501.44
2019-04-03T22:22:23.009Z,96500.14
2019-04-03T22:24:49.599Z,96500.78
2019-04-03T22:27:16.260Z,96498.36
2019-04-03T22:29:43.176Z,96494.92
2019-04-03T22:32:09.876Z,96490.87
2019-04-03T22:34:36.747Z,96496.41
2019-04-03T22:37:05.117Z,96499.96
2019-04-03T22:39:32.024Z,96496.44
2019-04-03T22:41:58.975Z,96488.11
2019-04-03T22:44:25.616Z,96489.27
2019-04-03T22:46:54.099Z,96489.27
2019-04-03T22:49:21.655Z,96489.33
2019-04-03T22:51:50.551Z,96491.82
2019-04-03T22:54:17.445Z,96493.81
2019-04-03T22:56:47.706Z,96493.36
2019-04-03T22:59:12.444Z,96491.62
2019-04-03T23:01:39.335Z,96490.78
2019-04-03T23:04:07.859Z,96487.48
2019-04-03T23:06:34.410Z,96493.09
2019-04-03T23:09:02.023Z,96495.23
2019-04-03T23:11:32.032Z,96488.78
2019-04-03T23:14:00.496Z,96494.19
2019-04-03T23:16:31.924Z,96494.55
2019-04-03T23:19:01.710Z,96487.61
2019-04-03T23:21:32.341Z,96486.28
2019-04-03T23:23:59.155Z,96483.92
2019-04-03T23:26:27.039Z,96473.19
2019-04-03T23:31:44.547Z,96477.42
2019-04-03T23:34:11.337Z,96471.78
2019-04-03T23:36:42.674Z,96473.70
2019-04-03T23:39:14.098Z,96474.20
2019-04-03T23:41:43.672Z,96465.69
2019-04-03T23:44:11.658Z,96464.81
2019-04-03T23:46:45.376Z,96468.92
2019-04-03T23:49:13.099Z,96466.44
2019-04-03T23:51:40.998Z,96464.84
2019-04-03T23:54:16.008Z,96458.91
2019-04-03T23:56:42.052Z,96458.30
2019-04-03T23:59:12.667Z,96449.76
